Corpus Christi, TX

10:14 AM CST on December 09, 2016 (GMT -0600)
Tadpole Moat | | Change Station

Elev 30 ft 27.75 °N, 97.38 °W | Updated 4 seconds ago

Overcast
Overcast
43.2 °F
Feels Like 43 °F
N
0.0
Wind Variable Wind from SSW
Gusts 0.0 mph

Today
High -- | Low -- °F
--% Chance of Precip.
Yesterday
High -- | Low -- °F
Precip. -- in
Pressure 30.62 in
Visibility 10.0 miles
Clouds Few 6000 ft
Mostly Cloudy 7500 ft
Windchill 43 °F
Dew Point 14 °F
Humidity 31%
Rainfall 0.00 in
Snow Depth Not available.
7:09 AM 5:35 PM
Waxing Gibbous, 75% visible
METAR KCRP 091551Z 36012KT 10SM FEW060 BKN075 05/M03 A3062 RMK AO2 SLP367 T00501033
Pressure 30.62 in
Visibility 10.0 miles
Clouds Few 6000 ft
Mostly Cloudy 7500 ft
Windchill 43 °F
Dew Point 14 °F
Humidity 31%
Rainfall 0.00 in
Snow Depth Not available.
7:09 AM 5:35 PM
Waxing Gibbous, 75% visible
METAR KCRP 091551Z 36012KT 10SM FEW060 BKN075 05/M03 A3062 RMK AO2 SLP367 T00501033

10-Day Weather Forecast

Almanac

Astronomy

Dec. 09, 2016 Rise Set
Actual Time
Civil Twilight
Nautical Twilight
Astronomical Twilight
Moon
Length of Visible Light
Length of Day
Tomorrow will be .
, % of the Moon is Illuminated

Today's Extremes

State Highs State Lows

Community

WunderPhotos

Upload Photos

1,956,462 photos uploaded!

WunderBlog® & News

Nearby

Air Quality

  Air Quality AQ Index Pollutant
Not available.

Snow Depth

Station Depth Elevation

Earthquake Activity

City Distance Mag. Time & Date
Minimum magnitude displayed is 2.5.

Coastal Water Temperatures

Place Temperature

Stations

Nearby Weather Stations

Station Location Temp. Windchill Dew Point Humidity Wind Precip. Elev Updated Type
                   

Watches & Warnings

There are currently no watches in effect.